sensor_id;sensor_type;location;lat;lon;timestamp;temperature;humidity
837;DHT22;400;53.550;9.932;2022-12-16T00:01:27;2.80;99.90
837;DHT22;400;53.550;9.932;2022-12-16T00:03:55;2.80;99.90
837;DHT22;400;53.550;9.932;2022-12-16T00:06:24;2.80;99.90
837;DHT22;400;53.550;9.932;2022-12-16T00:08:53;2.80;99.90
837;DHT22;400;53.550;9.932;2022-12-16T00:11:19;2.80;99.90
837;DHT22;400;53.550;9.932;2022-12-16T00:13:47;2.80;99.90
837;DHT22;400;53.550;9.932;2022-12-16T00:16:15;2.80;99.90
837;DHT22;400;53.550;9.932;2022-12-16T00:18:43;2.80;99.90
837;DHT22;400;53.550;9.932;2022-12-16T00:21:10;2.70;99.90
837;DHT22;400;53.550;9.932;2022-12-16T00:23:37;2.70;99.90
837;DHT22;400;53.550;9.932;2022-12-16T00:26:07;2.70;99.90
837;DHT22;400;53.550;9.932;2022-12-16T00:28:35;2.80;99.90
837;DHT22;400;53.550;9.932;2022-12-16T00:31:02;2.80;99.90
837;DHT22;400;53.550;9.932;2022-12-16T00:33:29;2.80;99.90
837;DHT22;400;53.550;9.932;2022-12-16T00:35:56;2.80;99.90
837;DHT22;400;53.550;9.932;2022-12-16T00:38:25;2.80;99.90
837;DHT22;400;53.550;9.932;2022-12-16T00:40:52;2.80;99.90
837;DHT22;400;53.550;9.932;2022-12-16T00:43:21;2.80;99.90
837;DHT22;400;53.550;9.932;2022-12-16T00:45:47;2.80;99.90
837;DHT22;400;53.550;9.932;2022-12-16T00:48:15;2.80;99.90
837;DHT22;400;53.550;9.932;2022-12-16T00:50:44;2.70;99.90
837;DHT22;400;53.550;9.932;2022-12-16T00:53:11;2.60;99.90
837;DHT22;400;53.550;9.932;2022-12-16T00:55:38;2.70;99.90
837;DHT22;400;53.550;9.932;2022-12-16T00:58:05;2.60;99.90
837;DHT22;400;53.550;9.932;2022-12-16T01:00:33;2.60;99.90
837;DHT22;400;53.550;9.932;2022-12-16T01:03:00;2.60;99.90
837;DHT22;400;53.550;9.932;2022-12-16T01:05:27;2.70;99.90
837;DHT22;400;53.550;9.932;2022-12-16T01:07:54;2.70;99.90
837;DHT22;400;53.550;9.932;2022-12-16T01:10:23;2.70;99.90
837;DHT22;400;53.550;9.932;2022-12-16T01:12:50;2.70;99.90
837;DHT22;400;53.550;9.932;2022-12-16T01:15:18;2.80;99.90
837;DHT22;400;53.550;9.932;2022-12-16T01:17:47;2.80;99.90
837;DHT22;400;53.550;9.932;2022-12-16T01:20:14;2.80;99.90
837;DHT22;400;53.550;9.932;2022-12-16T01:22:41;2.70;99.90
837;DHT22;400;53.550;9.932;2022-12-16T01:25:10;2.70;99.90
837;DHT22;400;53.550;9.932;2022-12-16T01:27:37;2.80;99.90
837;DHT22;400;53.550;9.932;2022-12-16T01:30:05;2.80;99.90
837;DHT22;400;53.550;9.932;2022-12-16T01:32:33;2.80;99.90
837;DHT22;400;53.550;9.932;2022-12-16T01:35:02;2.80;99.90
837;DHT22;400;53.550;9.932;2022-12-16T01:37:29;2.80;99.90
837;DHT22;400;53.550;9.932;2022-12-16T01:39:56;2.80;99.90
837;DHT22;400;53.550;9.932;2022-12-16T01:42:23;2.80;99.90
837;DHT22;400;53.550;9.932;2022-12-16T01:44:53;2.80;99.90
837;DHT22;400;53.550;9.932;2022-12-16T01:47:24;2.80;99.90
837;DHT22;400;53.550;9.932;2022-12-16T01:49:54;2.80;99.90
837;DHT22;400;53.550;9.932;2022-12-16T01:55:04;2.80;99.90
837;DHT22;400;53.550;9.932;2022-12-16T01:57:35;2.80;99.90
837;DHT22;400;53.550;9.932;2022-12-16T02:00:04;2.70;99.90
837;DHT22;400;53.550;9.932;2022-12-16T02:02:31;2.70;99.90
837;DHT22;400;53.550;9.932;2022-12-16T02:04:59;2.70;99.90
837;DHT22;400;53.550;9.932;2022-12-16T02:07:55;2.60;99.90
837;DHT22;400;53.550;9.932;2022-12-16T02:10:32;2.60;99.90
837;DHT22;400;53.550;9.932;2022-12-16T02:13:12;2.50;99.90
837;DHT22;400;53.550;9.932;2022-12-16T02:15:47;2.50;99.90
837;DHT22;400;53.550;9.932;2022-12-16T02:18:24;2.50;99.90
837;DHT22;400;53.550;9.932;2022-12-16T02:21:19;2.50;99.90
837;DHT22;400;53.550;9.932;2022-12-16T02:24:07;2.40;99.90
837;DHT22;400;53.550;9.932;2022-12-16T02:30:04;2.40;99.90
837;DHT22;400;53.550;9.932;2022-12-16T02:32:41;2.40;99.90
837;DHT22;400;53.550;9.932;2022-12-16T02:35:14;2.30;99.90
837;DHT22;400;53.550;9.932;2022-12-16T02:37:49;2.30;99.90
837;DHT22;400;53.550;9.932;2022-12-16T02:40:22;2.30;99.90
837;DHT22;400;53.550;9.932;2022-12-16T02:42:56;2.30;99.90
837;DHT22;400;53.550;9.932;2022-12-16T02:45:26;2.20;99.90
837;DHT22;400;53.550;9.932;2022-12-16T02:47:55;2.20;99.90
837;DHT22;400;53.550;9.932;2022-12-16T02:50:25;2.20;99.90
837;DHT22;400;53.550;9.932;2022-12-16T02:52:55;2.10;99.90
837;DHT22;400;53.550;9.932;2022-12-16T02:55:28;2.10;99.90
837;DHT22;400;53.550;9.932;2022-12-16T02:58:09;2.00;99.90
837;DHT22;400;53.550;9.932;2022-12-16T03:00:43;2.10;99.90
837;DHT22;400;53.550;9.932;2022-12-16T03:03:17;2.10;99.90
837;DHT22;400;53.550;9.932;2022-12-16T03:05:47;2.00;99.90
837;DHT22;400;53.550;9.932;2022-12-16T03:08:20;2.00;99.90
837;DHT22;400;53.550;9.932;2022-12-16T03:10:51;2.00;99.90
837;DHT22;400;53.550;9.932;2022-12-16T03:13:20;1.90;99.90
837;DHT22;400;53.550;9.932;2022-12-16T03:15:52;1.90;99.90
837;DHT22;400;53.550;9.932;2022-12-16T03:18:21;1.90;99.90
837;DHT22;400;53.550;9.932;2022-12-16T03:20:52;1.90;99.90
837;DHT22;400;53.550;9.932;2022-12-16T03:23:24;1.90;99.90
837;DHT22;400;53.550;9.932;2022-12-16T03:25:53;1.90;99.90
837;DHT22;400;53.550;9.932;2022-12-16T03:28:30;1.80;99.90
837;DHT22;400;53.550;9.932;2022-12-16T03:31:05;1.90;99.90
837;DHT22;400;53.550;9.932;2022-12-16T03:33:38;1.90;99.90
837;DHT22;400;53.550;9.932;2022-12-16T03:36:10;1.80;99.90
837;DHT22;400;53.550;9.932;2022-12-16T03:38:40;1.80;99.90
837;DHT22;400;53.550;9.932;2022-12-16T03:41:07;1.90;99.90
837;DHT22;400;53.550;9.932;2022-12-16T03:43:35;1.80;99.90
837;DHT22;400;53.550;9.932;2022-12-16T03:46:05;1.80;99.90
837;DHT22;400;53.550;9.932;2022-12-16T03:48:33;1.80;99.90
837;DHT22;400;53.550;9.932;2022-12-16T03:51:01;1.80;99.90
837;DHT22;400;53.550;9.932;2022-12-16T03:53:28;1.80;99.90
837;DHT22;400;53.550;9.932;2022-12-16T03:55:55;1.70;99.90
837;DHT22;400;53.550;9.932;2022-12-16T04:03:47;1.70;99.90
837;DHT22;400;53.550;9.932;2022-12-16T04:06:15;1.70;99.90
837;DHT22;400;53.550;9.932;2022-12-16T04:08:44;1.70;99.90
837;DHT22;400;53.550;9.932;2022-12-16T04:11:11;1.70;99.90
837;DHT22;400;53.550;9.932;2022-12-16T04:13:57;1.60;99.90
837;DHT22;400;53.550;9.932;2022-12-16T04:16:42;1.60;99.90
837;DHT22;400;53.550;9.932;2022-12-16T04:19:30;1.60;99.90
837;DHT22;400;53.550;9.932;2022-12-16T04:22:18;1.60;99.90
837;DHT22;400;53.550;9.932;2022-12-16T04:25:06;1.60;99.90
837;DHT22;400;53.550;9.932;2022-12-16T04:27:35;1.60;99.90
837;DHT22;400;53.550;9.932;2022-12-16T04:30:03;1.60;99.90
837;DHT22;400;53.550;9.932;2022-12-16T04:32:51;1.60;99.90
837;DHT22;400;53.550;9.932;2022-12-16T04:35:37;1.60;99.90
837;DHT22;400;53.550;9.932;2022-12-16T04:38:23;1.60;99.90
837;DHT22;400;53.550;9.932;2022-12-16T04:41:07;1.50;99.90
837;DHT22;400;53.550;9.932;2022-12-16T04:43:52;1.50;99.90
837;DHT22;400;53.550;9.932;2022-12-16T04:46:36;1.50;99.90
837;DHT22;400;53.550;9.932;2022-12-16T04:49:20;1.60;99.90
837;DHT22;400;53.550;9.932;2022-12-16T04:52:04;1.50;99.90
837;DHT22;400;53.550;9.932;2022-12-16T04:54:50;1.50;99.90
837;DHT22;400;53.550;9.932;2022-12-16T04:57:35;1.50;99.90
837;DHT22;400;53.550;9.932;2022-12-16T05:00:19;1.50;99.90
837;DHT22;400;53.550;9.932;2022-12-16T05:03:04;1.50;99.90
837;DHT22;400;53.550;9.932;2022-12-16T05:05:48;1.50;99.90
837;DHT22;400;53.550;9.932;2022-12-16T05:08:32;1.50;99.90
837;DHT22;400;53.550;9.932;2022-12-16T05:11:18;1.40;99.90
837;DHT22;400;53.550;9.932;2022-12-16T05:14:03;1.50;99.90
837;DHT22;400;53.550;9.932;2022-12-16T05:16:47;1.50;99.90
837;DHT22;400;53.550;9.932;2022-12-16T05:19:31;1.40;99.90
837;DHT22;400;53.550;9.932;2022-12-16T05:22:16;1.40;99.90
837;DHT22;400;53.550;9.932;2022-12-16T05:25:00;1.40;99.90
837;DHT22;400;53.550;9.932;2022-12-16T05:27:51;1.40;99.90
837;DHT22;400;53.550;9.932;2022-12-16T05:30:38;1.40;99.90
837;DHT22;400;53.550;9.932;2022-12-16T05:33:25;1.40;99.90
837;DHT22;400;53.550;9.932;2022-12-16T05:36:10;1.30;99.90
837;DHT22;400;53.550;9.932;2022-12-16T05:38:54;1.20;99.90
837;DHT22;400;53.550;9.932;2022-12-16T05:41:38;1.20;99.90
837;DHT22;400;53.550;9.932;2022-12-16T05:44:24;1.10;99.90
837;DHT22;400;53.550;9.932;2022-12-16T05:47:08;1.00;99.90
837;DHT22;400;53.550;9.932;2022-12-16T05:49:53;1.00;99.90
837;DHT22;400;53.550;9.932;2022-12-16T05:52:46;1.10;99.90
837;DHT22;400;53.550;9.932;2022-12-16T05:55:33;1.00;99.90
837;DHT22;400;53.550;9.932;2022-12-16T05:58:18;1.10;99.90
837;DHT22;400;53.550;9.932;2022-12-16T06:01:04;1.10;99.90
837;DHT22;400;53.550;9.932;2022-12-16T06:03:49;1.10;99.90
837;DHT22;400;53.550;9.932;2022-12-16T06:06:33;1.00;99.90
837;DHT22;400;53.550;9.932;2022-12-16T06:09:18;0.90;99.90
837;DHT22;400;53.550;9.932;2022-12-16T06:12:02;0.90;99.90
837;DHT22;400;53.550;9.932;2022-12-16T06:14:57;0.80;99.90
837;DHT22;400;53.550;9.932;2022-12-16T06:17:46;0.70;99.90
837;DHT22;400;53.550;9.932;2022-12-16T06:20:31;0.60;99.90
837;DHT22;400;53.550;9.932;2022-12-16T06:23:15;0.50;99.90
837;DHT22;400;53.550;9.932;2022-12-16T06:25:59;0.50;99.90
837;DHT22;400;53.550;9.932;2022-12-16T06:28:43;0.60;99.90
837;DHT22;400;53.550;9.932;2022-12-16T06:31:28;0.60;99.90
837;DHT22;400;53.550;9.932;2022-12-16T06:34:14;0.60;99.90
837;DHT22;400;53.550;9.932;2022-12-16T06:36:58;0.70;99.90
837;DHT22;400;53.550;9.932;2022-12-16T06:39:44;0.60;99.90
837;DHT22;400;53.550;9.932;2022-12-16T06:42:31;0.70;99.90
837;DHT22;400;53.550;9.932;2022-12-16T06:45:17;0.70;99.90
837;DHT22;400;53.550;9.932;2022-12-16T06:48:02;0.60;99.90
837;DHT22;400;53.550;9.932;2022-12-16T06:50:48;0.60;99.90
837;DHT22;400;53.550;9.932;2022-12-16T06:53:32;0.60;99.90
837;DHT22;400;53.550;9.932;2022-12-16T06:56:17;0.60;99.90
837;DHT22;400;53.550;9.932;2022-12-16T06:59:01;0.70;99.90
837;DHT22;400;53.550;9.932;2022-12-16T07:01:45;0.70;99.90
837;DHT22;400;53.550;9.932;2022-12-16T07:04:29;0.80;99.90
837;DHT22;400;53.550;9.932;2022-12-16T07:07:15;0.80;99.90
837;DHT22;400;53.550;9.932;2022-12-16T07:09:59;0.80;99.90
837;DHT22;400;53.550;9.932;2022-12-16T07:12:44;0.80;99.90
837;DHT22;400;53.550;9.932;2022-12-16T07:15:28;0.80;99.90
837;DHT22;400;53.550;9.932;2022-12-16T07:18:12;0.70;99.90
837;DHT22;400;53.550;9.932;2022-12-16T07:20:56;0.60;99.90
837;DHT22;400;53.550;9.932;2022-12-16T07:23:45;0.60;99.90
837;DHT22;400;53.550;9.932;2022-12-16T07:26:30;0.60;99.90
837;DHT22;400;53.550;9.932;2022-12-16T07:29:14;0.50;99.90
837;DHT22;400;53.550;9.932;2022-12-16T07:31:58;0.50;99.90
837;DHT22;400;53.550;9.932;2022-12-16T07:34:42;0.40;99.90
837;DHT22;400;53.550;9.932;2022-12-16T07:37:27;0.50;99.90
837;DHT22;400;53.550;9.932;2022-12-16T07:40:15;0.50;99.90
837;DHT22;400;53.550;9.932;2022-12-16T07:43:05;0.50;99.90
837;DHT22;400;53.550;9.932;2022-12-16T07:45:51;0.40;99.90
837;DHT22;400;53.550;9.932;2022-12-16T07:48:37;0.50;99.90
837;DHT22;400;53.550;9.932;2022-12-16T07:51:23;0.60;99.90
837;DHT22;400;53.550;9.932;2022-12-16T07:54:09;0.70;99.90
837;DHT22;400;53.550;9.932;2022-12-16T07:56:55;0.80;99.90
837;DHT22;400;53.550;9.932;2022-12-16T07:59:40;0.90;99.90
837;DHT22;400;53.550;9.932;2022-12-16T08:02:24;0.90;99.90
837;DHT22;400;53.550;9.932;2022-12-16T08:05:09;0.90;99.90
837;DHT22;400;53.550;9.932;2022-12-16T08:07:53;0.80;99.90
837;DHT22;400;53.550;9.932;2022-12-16T08:10:38;0.80;99.90
837;DHT22;400;53.550;9.932;2022-12-16T08:13:24;0.90;99.90
837;DHT22;400;53.550;9.932;2022-12-16T08:16:08;0.90;99.90
837;DHT22;400;53.550;9.932;2022-12-16T08:18:53;1.10;99.90
837;DHT22;400;53.550;9.932;2022-12-16T08:21:37;1.20;99.90
837;DHT22;400;53.550;9.932;2022-12-16T08:24:23;1.30;99.90
837;DHT22;400;53.550;9.932;2022-12-16T08:27:07;1.40;99.90
837;DHT22;400;53.550;9.932;2022-12-16T08:29:52;1.40;99.90
837;DHT22;400;53.550;9.932;2022-12-16T08:32:37;1.50;99.90
837;DHT22;400;53.550;9.932;2022-12-16T08:35:21;1.60;99.90
837;DHT22;400;53.550;9.932;2022-12-16T08:38:05;1.60;99.90
837;DHT22;400;53.550;9.932;2022-12-16T08:40:49;1.70;99.90
837;DHT22;400;53.550;9.932;2022-12-16T08:43:34;1.80;99.90
837;DHT22;400;53.550;9.932;2022-12-16T08:46:20;1.80;99.90
837;DHT22;400;53.550;9.932;2022-12-16T08:49:05;1.90;99.90
837;DHT22;400;53.550;9.932;2022-12-16T08:51:58;1.90;99.90
837;DHT22;400;53.550;9.932;2022-12-16T08:54:51;1.90;99.90
837;DHT22;400;53.550;9.932;2022-12-16T08:57:36;2.00;99.90
837;DHT22;400;53.550;9.932;2022-12-16T09:00:21;2.00;99.90
837;DHT22;400;53.550;9.932;2022-12-16T09:03:08;2.10;99.90
837;DHT22;400;53.550;9.932;2022-12-16T09:05:57;2.10;99.90
837;DHT22;400;53.550;9.932;2022-12-16T09:08:42;2.20;99.90
837;DHT22;400;53.550;9.932;2022-12-16T09:11:26;2.20;99.90
837;DHT22;400;53.550;9.932;2022-12-16T09:14:10;2.20;99.90
837;DHT22;400;53.550;9.932;2022-12-16T09:16:57;2.30;99.90
837;DHT22;400;53.550;9.932;2022-12-16T09:19:44;2.30;99.90
837;DHT22;400;53.550;9.932;2022-12-16T09:22:33;2.30;99.90
837;DHT22;400;53.550;9.932;2022-12-16T09:25:25;2.40;99.90
837;DHT22;400;53.550;9.932;2022-12-16T09:28:17;2.40;99.90
837;DHT22;400;53.550;9.932;2022-12-16T09:31:05;2.40;99.90
837;DHT22;400;53.550;9.932;2022-12-16T09:33:52;2.40;99.90
837;DHT22;400;53.550;9.932;2022-12-16T09:36:38;2.30;99.90
837;DHT22;400;53.550;9.932;2022-12-16T09:39:24;2.30;99.90
837;DHT22;400;53.550;9.932;2022-12-16T09:42:23;2.30;99.90
837;DHT22;400;53.550;9.932;2022-12-16T09:45:17;2.40;99.90
837;DHT22;400;53.550;9.932;2022-12-16T09:48:07;2.40;99.90
837;DHT22;400;53.550;9.932;2022-12-16T09:51:00;2.40;99.90
837;DHT22;400;53.550;9.932;2022-12-16T09:53:51;2.40;99.90
837;DHT22;400;53.550;9.932;2022-12-16T09:56:39;2.40;99.90
837;DHT22;400;53.550;9.932;2022-12-16T09:59:28;2.40;99.90
837;DHT22;400;53.550;9.932;2022-12-16T10:02:14;2.40;99.90
837;DHT22;400;53.550;9.932;2022-12-16T10:05:01;2.40;99.90
837;DHT22;400;53.550;9.932;2022-12-16T10:08:00;2.40;99.90
837;DHT22;400;53.550;9.932;2022-12-16T10:10:57;2.40;99.90
837;DHT22;400;53.550;9.932;2022-12-16T10:13:51;2.40;99.90
837;DHT22;400;53.550;9.932;2022-12-16T10:16:49;2.30;99.90
837;DHT22;400;53.550;9.932;2022-12-16T10:19:43;2.40;99.90
837;DHT22;400;53.550;9.932;2022-12-16T10:22:38;2.40;99.90
837;DHT22;400;53.550;9.932;2022-12-16T10:25:29;2.40;99.90
837;DHT22;400;53.550;9.932;2022-12-16T10:28:18;2.40;99.90
837;DHT22;400;53.550;9.932;2022-12-16T10:31:12;2.40;99.90
837;DHT22;400;53.550;9.932;2022-12-16T10:33:59;2.40;99.90
837;DHT22;400;53.550;9.932;2022-12-16T10:36:45;2.40;99.90
837;DHT22;400;53.550;9.932;2022-12-16T10:39:44;2.40;99.90
837;DHT22;400;53.550;9.932;2022-12-16T10:42:36;2.40;99.90
837;DHT22;400;53.550;9.932;2022-12-16T10:45:29;2.40;99.90
837;DHT22;400;53.550;9.932;2022-12-16T10:48:17;2.40;99.90
837;DHT22;400;53.550;9.932;2022-12-16T10:51:12;2.40;99.90
837;DHT22;400;53.550;9.932;2022-12-16T10:54:10;2.40;99.90
837;DHT22;400;53.550;9.932;2022-12-16T10:57:04;2.40;99.90
837;DHT22;400;53.550;9.932;2022-12-16T11:00:07;2.40;99.90
837;DHT22;400;53.550;9.932;2022-12-16T11:02:53;2.40;99.90
837;DHT22;400;53.550;9.932;2022-12-16T11:05:39;2.40;99.90
837;DHT22;400;53.550;9.932;2022-12-16T11:08:32;2.50;99.90
837;DHT22;400;53.550;9.932;2022-12-16T11:11:21;2.50;99.90
837;DHT22;400;53.550;9.932;2022-12-16T11:14:15;2.50;99.90
837;DHT22;400;53.550;9.932;2022-12-16T11:17:13;2.50;99.90
837;DHT22;400;53.550;9.932;2022-12-16T11:20:10;2.50;99.90
837;DHT22;400;53.550;9.932;2022-12-16T11:23:19;2.50;99.90
837;DHT22;400;53.550;9.932;2022-12-16T11:26:13;2.50;99.90
837;DHT22;400;53.550;9.932;2022-12-16T11:29:05;2.50;99.90
837;DHT22;400;53.550;9.932;2022-12-16T11:31:55;2.50;99.90
837;DHT22;400;53.550;9.932;2022-12-16T11:34:41;2.50;99.90
837;DHT22;400;53.550;9.932;2022-12-16T11:37:29;2.60;99.90
837;DHT22;400;53.550;9.932;2022-12-16T11:40:16;2.60;99.90
837;DHT22;400;53.550;9.932;2022-12-16T11:43:03;2.60;99.90
837;DHT22;400;53.550;9.932;2022-12-16T11:45:54;2.60;99.90
837;DHT22;400;53.550;9.932;2022-12-16T11:48:44;2.60;99.90
837;DHT22;400;53.550;9.932;2022-12-16T11:51:33;2.60;99.90
837;DHT22;400;53.550;9.932;2022-12-16T11:54:22;2.70;99.90
837;DHT22;400;53.550;9.932;2022-12-16T11:57:17;2.70;99.90
837;DHT22;400;53.550;9.932;2022-12-16T12:00:08;2.70;99.90
837;DHT22;400;53.550;9.932;2022-12-16T12:03:00;2.70;99.90
837;DHT22;400;53.550;9.932;2022-12-16T12:05:58;2.70;99.90
837;DHT22;400;53.550;9.932;2022-12-16T12:08:50;2.70;99.90
837;DHT22;400;53.550;9.932;2022-12-16T12:11:44;2.60;99.90
837;DHT22;400;53.550;9.932;2022-12-16T12:14:35;2.70;99.90
837;DHT22;400;53.550;9.932;2022-12-16T12:17:32;2.70;99.90
837;DHT22;400;53.550;9.932;2022-12-16T12:20:37;2.60;99.90
837;DHT22;400;53.550;9.932;2022-12-16T12:23:33;2.70;99.90
837;DHT22;400;53.550;9.932;2022-12-16T12:26:33;2.70;99.90
837;DHT22;400;53.550;9.932;2022-12-16T12:29:25;2.80;99.90
837;DHT22;400;53.550;9.932;2022-12-16T12:32:23;2.80;99.90
837;DHT22;400;53.550;9.932;2022-12-16T12:35:17;2.80;99.90
837;DHT22;400;53.550;9.932;2022-12-16T12:38:11;2.90;99.90
837;DHT22;400;53.550;9.932;2022-12-16T12:41:05;2.90;99.90
837;DHT22;400;53.550;9.932;2022-12-16T12:44:01;2.90;99.90
837;DHT22;400;53.550;9.932;2022-12-16T12:46:51;2.90;99.90
837;DHT22;400;53.550;9.932;2022-12-16T12:49:42;2.90;99.90
837;DHT22;400;53.550;9.932;2022-12-16T12:53:11;2.90;99.90
837;DHT22;400;53.550;9.932;2022-12-16T12:56:05;2.90;99.90
837;DHT22;400;53.550;9.932;2022-12-16T12:58:55;2.90;99.90
837;DHT22;400;53.550;9.932;2022-12-16T13:01:47;3.00;99.90
837;DHT22;400;53.550;9.932;2022-12-16T13:04:35;3.00;99.90
837;DHT22;400;53.550;9.932;2022-12-16T13:07:19;3.00;99.90
837;DHT22;400;53.550;9.932;2022-12-16T13:10:34;3.00;99.90
837;DHT22;400;53.550;9.932;2022-12-16T13:13:31;3.10;99.90
837;DHT22;400;53.550;9.932;2022-12-16T13:19:57;3.10;99.90
837;DHT22;400;53.550;9.932;2022-12-16T13:22:43;3.00;99.90
837;DHT22;400;53.550;9.932;2022-12-16T13:25:39;2.80;99.90
837;DHT22;400;53.550;9.932;2022-12-16T13:28:28;2.70;99.90
837;DHT22;400;53.550;9.932;2022-12-16T13:31:15;2.50;99.90
837;DHT22;400;53.550;9.932;2022-12-16T13:34:04;2.40;99.90
837;DHT22;400;53.550;9.932;2022-12-16T13:36:56;2.50;99.90
837;DHT22;400;53.550;9.932;2022-12-16T13:40:00;2.30;99.90
837;DHT22;400;53.550;9.932;2022-12-16T13:42:54;2.20;99.90
837;DHT22;400;53.550;9.932;2022-12-16T13:45:42;2.20;99.90
837;DHT22;400;53.550;9.932;2022-12-16T13:48:32;2.10;99.90
837;DHT22;400;53.550;9.932;2022-12-16T13:51:57;2.20;99.90
837;DHT22;400;53.550;9.932;2022-12-16T13:54:48;2.20;99.90
837;DHT22;400;53.550;9.932;2022-12-16T13:57:38;2.20;99.90
837;DHT22;400;53.550;9.932;2022-12-16T14:00:27;2.10;99.90
837;DHT22;400;53.550;9.932;2022-12-16T14:03:17;2.10;99.90
837;DHT22;400;53.550;9.932;2022-12-16T14:06:04;2.30;99.90
837;DHT22;400;53.550;9.932;2022-12-16T14:08:53;2.30;99.90
837;DHT22;400;53.550;9.932;2022-12-16T14:11:44;2.40;99.90
837;DHT22;400;53.550;9.932;2022-12-16T14:14:32;2.40;99.90
837;DHT22;400;53.550;9.932;2022-12-16T14:17:24;2.30;99.90
837;DHT22;400;53.550;9.932;2022-12-16T14:20:16;2.40;99.90
837;DHT22;400;53.550;9.932;2022-12-16T14:23:11;2.30;99.90
837;DHT22;400;53.550;9.932;2022-12-16T14:26:01;2.20;99.90
837;DHT22;400;53.550;9.932;2022-12-16T14:28:48;2.30;99.90
837;DHT22;400;53.550;9.932;2022-12-16T14:31:41;2.20;99.90
837;DHT22;400;53.550;9.932;2022-12-16T14:34:28;2.30;99.90
837;DHT22;400;53.550;9.932;2022-12-16T14:37:12;2.30;99.90
837;DHT22;400;53.550;9.932;2022-12-16T14:39:57;2.30;99.90
837;DHT22;400;53.550;9.932;2022-12-16T14:42:43;2.30;99.90
837;DHT22;400;53.550;9.932;2022-12-16T14:45:31;2.40;99.90
837;DHT22;400;53.550;9.932;2022-12-16T14:48:27;2.40;99.90
837;DHT22;400;53.550;9.932;2022-12-16T14:51:25;2.20;99.90
837;DHT22;400;53.550;9.932;2022-12-16T14:54:23;2.10;99.90
837;DHT22;400;53.550;9.932;2022-12-16T14:57:14;2.20;99.90
837;DHT22;400;53.550;9.932;2022-12-16T15:00:13;2.20;99.90
837;DHT22;400;53.550;9.932;2022-12-16T15:03:02;2.20;99.90
837;DHT22;400;53.550;9.932;2022-12-16T15:05:50;2.10;99.90
837;DHT22;400;53.550;9.932;2022-12-16T15:08:48;2.10;99.90
837;DHT22;400;53.550;9.932;2022-12-16T15:11:35;2.00;99.90
837;DHT22;400;53.550;9.932;2022-12-16T15:14:23;2.00;99.90
837;DHT22;400;53.550;9.932;2022-12-16T15:17:20;2.00;99.90
837;DHT22;400;53.550;9.932;2022-12-16T15:20:16;2.00;99.90
837;DHT22;400;53.550;9.932;2022-12-16T15:23:02;2.00;99.90
837;DHT22;400;53.550;9.932;2022-12-16T15:25:52;2.10;99.90
837;DHT22;400;53.550;9.932;2022-12-16T15:28:42;2.10;99.90
837;DHT22;400;53.550;9.932;2022-12-16T15:31:32;2.20;99.90
837;DHT22;400;53.550;9.932;2022-12-16T15:34:30;2.20;99.90
837;DHT22;400;53.550;9.932;2022-12-16T15:37:20;2.20;99.90
837;DHT22;400;53.550;9.932;2022-12-16T15:40:18;2.20;99.90
837;DHT22;400;53.550;9.932;2022-12-16T15:43:03;2.20;99.90
837;DHT22;400;53.550;9.932;2022-12-16T15:45:49;2.20;99.90
837;DHT22;400;53.550;9.932;2022-12-16T15:48:35;2.10;99.90
837;DHT22;400;53.550;9.932;2022-12-16T15:51:30;2.10;99.90
837;DHT22;400;53.550;9.932;2022-12-16T15:54:19;2.20;99.90
837;DHT22;400;53.550;9.932;2022-12-16T15:57:23;2.20;99.90
837;DHT22;400;53.550;9.932;2022-12-16T16:00:18;2.20;99.90
837;DHT22;400;53.550;9.932;2022-12-16T16:03:13;2.30;99.90
837;DHT22;400;53.550;9.932;2022-12-16T16:06:02;2.30;99.90
837;DHT22;400;53.550;9.932;2022-12-16T16:08:51;2.30;99.90
837;DHT22;400;53.550;9.932;2022-12-16T16:11:49;2.30;99.90
837;DHT22;400;53.550;9.932;2022-12-16T16:14:34;2.30;99.90
837;DHT22;400;53.550;9.932;2022-12-16T16:17:23;2.40;99.90
837;DHT22;400;53.550;9.932;2022-12-16T16:20:13;2.40;99.90
837;DHT22;400;53.550;9.932;2022-12-16T16:22:58;2.40;99.90
837;DHT22;400;53.550;9.932;2022-12-16T16:25:46;2.40;99.90
837;DHT22;400;53.550;9.932;2022-12-16T16:28:33;2.50;99.90
837;DHT22;400;53.550;9.932;2022-12-16T16:31:19;2.50;99.90
837;DHT22;400;53.550;9.932;2022-12-16T16:34:04;2.50;99.90
837;DHT22;400;53.550;9.932;2022-12-16T16:36:52;2.50;99.90
837;DHT22;400;53.550;9.932;2022-12-16T16:39:39;2.50;99.90
837;DHT22;400;53.550;9.932;2022-12-16T16:42:37;2.60;99.90
837;DHT22;400;53.550;9.932;2022-12-16T16:45:19;2.60;99.90
837;DHT22;400;53.550;9.932;2022-12-16T16:48:08;2.70;99.90
837;DHT22;400;53.550;9.932;2022-12-16T16:50:55;2.60;99.90
837;DHT22;400;53.550;9.932;2022-12-16T16:53:41;2.70;99.90
837;DHT22;400;53.550;9.932;2022-12-16T16:56:27;2.70;99.90
837;DHT22;400;53.550;9.932;2022-12-16T16:59:13;2.70;99.90
837;DHT22;400;53.550;9.932;2022-12-16T17:01:57;2.70;99.90
837;DHT22;400;53.550;9.932;2022-12-16T17:04:43;2.70;99.90
837;DHT22;400;53.550;9.932;2022-12-16T17:07:27;2.70;99.90
837;DHT22;400;53.550;9.932;2022-12-16T17:10:12;2.70;99.90
837;DHT22;400;53.550;9.932;2022-12-16T17:12:58;2.70;99.90
837;DHT22;400;53.550;9.932;2022-12-16T17:15:48;2.70;99.90
837;DHT22;400;53.550;9.932;2022-12-16T17:18:34;2.70;99.90
837;DHT22;400;53.550;9.932;2022-12-16T17:21:20;2.70;99.90
837;DHT22;400;53.550;9.932;2022-12-16T17:24:05;2.80;99.90
837;DHT22;400;53.550;9.932;2022-12-16T17:26:49;2.70;99.90
837;DHT22;400;53.550;9.932;2022-12-16T17:29:34;2.80;99.90
837;DHT22;400;53.550;9.932;2022-12-16T17:32:20;2.70;99.90
837;DHT22;400;53.550;9.932;2022-12-16T17:35:04;2.70;99.90
837;DHT22;400;53.550;9.932;2022-12-16T17:37:54;2.70;99.90
837;DHT22;400;53.550;9.932;2022-12-16T17:40:40;2.80;99.90
837;DHT22;400;53.550;9.932;2022-12-16T17:43:25;2.80;99.90
837;DHT22;400;53.550;9.932;2022-12-16T17:46:22;2.80;99.90
837;DHT22;400;53.550;9.932;2022-12-16T17:49:04;2.70;99.90
837;DHT22;400;53.550;9.932;2022-12-16T17:51:49;2.80;99.90
837;DHT22;400;53.550;9.932;2022-12-16T17:54:34;2.80;99.90
837;DHT22;400;53.550;9.932;2022-12-16T17:57:19;2.80;99.90
837;DHT22;400;53.550;9.932;2022-12-16T18:00:07;2.80;99.90
837;DHT22;400;53.550;9.932;2022-12-16T18:02:51;2.80;99.90
837;DHT22;400;53.550;9.932;2022-12-16T18:05:37;2.70;99.90
837;DHT22;400;53.550;9.932;2022-12-16T18:08:21;2.80;99.90
837;DHT22;400;53.550;9.932;2022-12-16T18:11:06;2.80;99.90
837;DHT22;400;53.550;9.932;2022-12-16T18:13:51;2.70;99.90
837;DHT22;400;53.550;9.932;2022-12-16T18:16:35;2.80;99.90
837;DHT22;400;53.550;9.932;2022-12-16T18:19:21;2.80;99.90
837;DHT22;400;53.550;9.932;2022-12-16T18:22:10;2.80;99.90
837;DHT22;400;53.550;9.932;2022-12-16T18:24:57;2.80;99.90
837;DHT22;400;53.550;9.932;2022-12-16T18:27:41;2.80;99.90
837;DHT22;400;53.550;9.932;2022-12-16T18:30:27;2.80;99.90
837;DHT22;400;53.550;9.932;2022-12-16T18:33:12;2.80;99.90
837;DHT22;400;53.550;9.932;2022-12-16T18:35:57;2.80;99.90
837;DHT22;400;53.550;9.932;2022-12-16T18:38:45;2.80;99.90
837;DHT22;400;53.550;9.932;2022-12-16T18:41:29;2.80;99.90
837;DHT22;400;53.550;9.932;2022-12-16T18:44:13;2.70;99.90
837;DHT22;400;53.550;9.932;2022-12-16T18:46:58;2.60;99.90
837;DHT22;400;53.550;9.932;2022-12-16T18:49:44;2.60;99.90
837;DHT22;400;53.550;9.932;2022-12-16T18:52:31;2.60;99.90
837;DHT22;400;53.550;9.932;2022-12-16T18:55:19;2.60;99.90
837;DHT22;400;53.550;9.932;2022-12-16T18:58:04;2.70;99.90
837;DHT22;400;53.550;9.932;2022-12-16T19:01:00;2.70;99.90
837;DHT22;400;53.550;9.932;2022-12-16T19:03:45;2.70;99.90